createdAt,value
2017-12-09T00:11:04.187Z,20.3
2017-12-09T00:27:50.860Z,20.3
2017-12-09T00:44:37.519Z,20.0
2017-12-09T01:01:24.037Z,20.0
2017-12-09T01:18:10.704Z,20.0
2017-12-09T01:34:57.346Z,20.0
2017-12-09T01:51:43.846Z,20.0
2017-12-09T02:08:30.258Z,20.0
2017-12-09T02:25:17.826Z,20.0
2017-12-09T02:42:03.278Z,20.0
2017-12-09T02:58:49.705Z,20.0
2017-12-09T03:15:36.129Z,20.0
2017-12-09T03:32:22.545Z,20.0
2017-12-09T03:49:08.882Z,20.0
2017-12-09T04:05:55.254Z,20.0
2017-12-09T04:22:41.546Z,20.0
2017-12-09T04:39:27.799Z,20.0
2017-12-09T04:56:14.883Z,19.7
2017-12-09T05:13:00.285Z,19.7
2017-12-09T05:29:46.543Z,19.7
2017-12-09T05:46:32.745Z,19.7
2017-12-09T06:03:19.088Z,19.7
2017-12-09T06:20:05.385Z,20.0
2017-12-09T06:36:51.768Z,20.0
2017-12-09T06:53:38.131Z,20.0
2017-12-09T07:10:24.619Z,20.0
2017-12-09T07:27:11.295Z,20.0
2017-12-09T07:43:57.693Z,20.0
2017-12-09T08:00:44.402Z,20.0
2017-12-09T08:17:31.032Z,20.0
2017-12-09T08:34:17.716Z,20.3
2017-12-09T08:51:04.796Z,20.3
2017-12-09T09:07:51.848Z,20.0
2017-12-09T09:24:38.689Z,20.0
2017-12-09T09:41:25.556Z,20.0
2017-12-09T09:58:12.248Z,20.0
2017-12-09T10:14:58.962Z,20.0
2017-12-09T10:31:46.019Z,20.3
2017-12-09T10:48:33.768Z,20.3
2017-12-09T11:05:20.710Z,20.3
2017-12-09T11:22:08.064Z,20.3
2017-12-09T11:38:55.861Z,20.3
2017-12-09T11:55:42.527Z,20.3
2017-12-09T12:12:29.926Z,20.3
2017-12-09T12:29:17.458Z,20.6
2017-12-09T12:46:05.186Z,20.6
2017-12-09T13:02:53.075Z,21.0
2017-12-09T13:19:40.843Z,21.0
2017-12-09T13:36:28.680Z,20.6
2017-12-09T13:53:16.865Z,20.6
2017-12-09T14:10:04.866Z,20.6
2017-12-09T14:26:52.271Z,20.3
2017-12-09T14:43:39.847Z,20.3
2017-12-09T15:00:27.557Z,20.3
2017-12-09T15:17:15.085Z,20.3
2017-12-09T15:34:02.620Z,20.3
2017-12-09T15:50:50.909Z,20.3
2017-12-09T16:07:37.298Z,20.3
2017-12-09T16:24:24.164Z,20.3
2017-12-09T16:41:10.975Z,20.3
2017-12-09T16:57:57.990Z,20.3
2017-12-09T17:14:45.030Z,20.3
2017-12-09T17:31:32.431Z,20.3
2017-12-09T17:48:18.971Z,20.3
2017-12-09T18:05:05.863Z,20.3
2017-12-09T18:21:52.974Z,20.3
2017-12-09T18:38:39.699Z,20.0
2017-12-09T18:55:26.434Z,20.0
2017-12-09T19:12:13.245Z,20.0
2017-12-09T19:29:00.138Z,20.0
2017-12-09T19:45:46.723Z,20.3
2017-12-09T20:02:33.963Z,20.3
2017-12-09T20:19:21.034Z,20.0
2017-12-09T20:36:07.245Z,20.0
2017-12-09T20:52:53.941Z,20.0
2017-12-09T21:09:40.614Z,19.7
2017-12-09T21:26:26.301Z,19.4
2017-12-09T21:43:12.492Z,19.4
2017-12-09T21:59:58.273Z,19.4
2017-12-09T22:16:44.762Z,19.0
2017-12-09T22:33:29.790Z,19.0
2017-12-09T22:50:15.289Z,19.0
2017-12-09T23:07:00.650Z,18.7
2017-12-09T23:23:46.151Z,19.0
2017-12-09T23:40:31.710Z,19.0
2017-12-09T23:57:17.615Z,19.4
